sensor_id;sensor_type;location;lat;lon;timestamp;P1;durP1;ratioP1;P2;durP2;ratioP2
46110;SDS011;31849;55.992;37.252;2024-03-08T00:02:02;6.40;;;2.92;;
46110;SDS011;31849;55.992;37.252;2024-03-08T00:07:07;7.88;;;3.63;;
46110;SDS011;31849;55.992;37.252;2024-03-08T00:12:11;6.30;;;3.15;;
46110;SDS011;31849;55.992;37.252;2024-03-08T00:17:15;6.47;;;3.05;;
46110;SDS011;31849;55.992;37.252;2024-03-08T00:22:21;7.03;;;3.07;;
46110;SDS011;31849;55.992;37.252;2024-03-08T00:27:25;4.97;;;2.90;;
46110;SDS011;31849;55.992;37.252;2024-03-08T00:32:29;5.60;;;2.90;;
46110;SDS011;31849;55.992;37.252;2024-03-08T00:37:35;5.40;;;2.97;;
46110;SDS011;31849;55.992;37.252;2024-03-08T00:42:39;5.55;;;3.17;;
46110;SDS011;31849;55.992;37.252;2024-03-08T00:47:45;6.28;;;2.83;;
46110;SDS011;31849;55.992;37.252;2024-03-08T00:52:51;5.32;;;2.90;;
46110;SDS011;31849;55.992;37.252;2024-03-08T00:57:55;6.15;;;2.92;;
46110;SDS011;31849;55.992;37.252;2024-03-08T01:02:59;6.97;;;3.03;;
46110;SDS011;31849;55.992;37.252;2024-03-08T01:08:05;7.03;;;3.27;;
46110;SDS011;31849;55.992;37.252;2024-03-08T01:13:09;5.65;;;2.85;;
46110;SDS011;31849;55.992;37.252;2024-03-08T01:18:14;5.72;;;2.72;;
46110;SDS011;31849;55.992;37.252;2024-03-08T01:23:19;5.70;;;2.53;;
46110;SDS011;31849;55.992;37.252;2024-03-08T01:28:23;6.60;;;2.97;;
46110;SDS011;31849;55.992;37.252;2024-03-08T01:38:34;5.77;;;3.07;;
46110;SDS011;31849;55.992;37.252;2024-03-08T01:43:38;8.00;;;3.55;;
46110;SDS011;31849;55.992;37.252;2024-03-08T01:48:42;5.75;;;3.42;;
46110;SDS011;31849;55.992;37.252;2024-03-08T01:53:49;6.57;;;3.45;;
46110;SDS011;31849;55.992;37.252;2024-03-08T01:58:53;7.07;;;3.20;;
46110;SDS011;31849;55.992;37.252;2024-03-08T02:09:03;8.20;;;3.75;;
46110;SDS011;31849;55.992;37.252;2024-03-08T02:14:09;7.65;;;4.72;;
46110;SDS011;31849;55.992;37.252;2024-03-08T02:19:13;7.18;;;4.28;;
46110;SDS011;31849;55.992;37.252;2024-03-08T02:24:19;8.07;;;5.10;;
46110;SDS011;31849;55.992;37.252;2024-03-08T02:29:23;9.77;;;4.90;;
46110;SDS011;31849;55.992;37.252;2024-03-08T02:34:27;8.18;;;4.65;;
46110;SDS011;31849;55.992;37.252;2024-03-08T02:39:34;9.98;;;4.55;;
46110;SDS011;31849;55.992;37.252;2024-03-08T02:44:42;10.10;;;5.07;;
46110;SDS011;31849;55.992;37.252;2024-03-08T02:49:46;9.75;;;4.70;;
46110;SDS011;31849;55.992;37.252;2024-03-08T02:54:53;8.50;;;5.03;;
46110;SDS011;31849;55.992;37.252;2024-03-08T02:59:57;9.25;;;5.05;;
46110;SDS011;31849;55.992;37.252;2024-03-08T03:05:05;7.25;;;4.70;;
46110;SDS011;31849;55.992;37.252;2024-03-08T03:10:13;10.35;;;5.65;;
46110;SDS011;31849;55.992;37.252;2024-03-08T03:15:19;10.90;;;5.72;;
46110;SDS011;31849;55.992;37.252;2024-03-08T03:20:25;8.27;;;5.05;;
46110;SDS011;31849;55.992;37.252;2024-03-08T03:25:36;10.60;;;6.03;;
46110;SDS011;31849;55.992;37.252;2024-03-08T03:30:43;11.55;;;6.32;;
46110;SDS011;31849;55.992;37.252;2024-03-08T03:35:48;11.05;;;5.50;;
46110;SDS011;31849;55.992;37.252;2024-03-08T03:40:55;11.88;;;5.68;;
46110;SDS011;31849;55.992;37.252;2024-03-08T03:46:06;10.05;;;5.70;;
46110;SDS011;31849;55.992;37.252;2024-03-08T03:51:12;9.02;;;5.57;;
46110;SDS011;31849;55.992;37.252;2024-03-08T03:56:19;9.60;;;5.68;;
46110;SDS011;31849;55.992;37.252;2024-03-08T04:01:28;11.65;;;6.03;;
46110;SDS011;31849;55.992;37.252;2024-03-08T04:06:35;9.35;;;5.13;;
46110;SDS011;31849;55.992;37.252;2024-03-08T04:11:40;9.50;;;5.33;;
46110;SDS011;31849;55.992;37.252;2024-03-08T04:16:44;12.35;;;5.28;;
46110;SDS011;31849;55.992;37.252;2024-03-08T04:21:50;9.90;;;4.97;;
46110;SDS011;31849;55.992;37.252;2024-03-08T04:26:55;9.63;;;5.40;;
46110;SDS011;31849;55.992;37.252;2024-03-08T04:32:00;10.52;;;5.38;;
46110;SDS011;31849;55.992;37.252;2024-03-08T04:37:05;9.05;;;4.65;;
46110;SDS011;31849;55.992;37.252;2024-03-08T04:42:14;8.25;;;4.55;;
46110;SDS011;31849;55.992;37.252;2024-03-08T04:47:20;10.68;;;4.90;;
46110;SDS011;31849;55.992;37.252;2024-03-08T04:52:24;11.20;;;5.47;;
46110;SDS011;31849;55.992;37.252;2024-03-08T04:57:29;8.47;;;5.10;;
46110;SDS011;31849;55.992;37.252;2024-03-08T05:02:34;11.18;;;5.32;;
46110;SDS011;31849;55.992;37.252;2024-03-08T05:07:38;11.20;;;5.60;;
46110;SDS011;31849;55.992;37.252;2024-03-08T05:12:44;11.83;;;5.13;;
46110;SDS011;31849;55.992;37.252;2024-03-08T05:17:48;9.35;;;5.00;;
46110;SDS011;31849;55.992;37.252;2024-03-08T05:22:52;11.00;;;6.03;;
46110;SDS011;31849;55.992;37.252;2024-03-08T05:27:57;8.67;;;5.20;;
46110;SDS011;31849;55.992;37.252;2024-03-08T05:33:01;9.98;;;5.25;;
46110;SDS011;31849;55.992;37.252;2024-03-08T05:43:11;10.13;;;5.38;;
46110;SDS011;31849;55.992;37.252;2024-03-08T05:48:15;9.82;;;5.30;;
46110;SDS011;31849;55.992;37.252;2024-03-08T05:53:20;9.20;;;5.10;;
46110;SDS011;31849;55.992;37.252;2024-03-08T05:58:26;8.50;;;4.93;;
46110;SDS011;31849;55.992;37.252;2024-03-08T06:03:32;9.85;;;4.90;;
46110;SDS011;31849;55.992;37.252;2024-03-08T06:08:36;11.83;;;5.50;;
46110;SDS011;31849;55.992;37.252;2024-03-08T06:13:41;10.00;;;5.93;;
46110;SDS011;31849;55.992;37.252;2024-03-08T06:18:45;11.15;;;6.05;;
46110;SDS011;31849;55.992;37.252;2024-03-08T06:23:50;11.40;;;6.05;;
46110;SDS011;31849;55.992;37.252;2024-03-08T06:28:55;10.70;;;6.03;;
46110;SDS011;31849;55.992;37.252;2024-03-08T06:34:00;10.65;;;6.15;;
46110;SDS011;31849;55.992;37.252;2024-03-08T06:39:04;10.27;;;5.83;;
46110;SDS011;31849;55.992;37.252;2024-03-08T06:44:13;13.98;;;6.60;;
46110;SDS011;31849;55.992;37.252;2024-03-08T06:49:18;13.43;;;6.95;;
46110;SDS011;31849;55.992;37.252;2024-03-08T06:54:22;10.63;;;6.23;;
46110;SDS011;31849;55.992;37.252;2024-03-08T06:59:28;14.65;;;5.93;;
46110;SDS011;31849;55.992;37.252;2024-03-08T07:04:32;13.45;;;6.80;;
46110;SDS011;31849;55.992;37.252;2024-03-08T07:09:40;10.27;;;6.10;;
46110;SDS011;31849;55.992;37.252;2024-03-08T07:14:46;14.32;;;7.30;;
46110;SDS011;31849;55.992;37.252;2024-03-08T07:19:50;11.13;;;6.07;;
46110;SDS011;31849;55.992;37.252;2024-03-08T07:24:54;9.80;;;5.90;;
46110;SDS011;31849;55.992;37.252;2024-03-08T07:30:18;9.25;;;5.60;;
46110;SDS011;31849;55.992;37.252;2024-03-08T07:35:40;11.35;;;6.68;;
46110;SDS011;31849;55.992;37.252;2024-03-08T07:40:46;10.52;;;6.38;;
46110;SDS011;31849;55.992;37.252;2024-03-08T07:45:51;12.10;;;6.57;;
46110;SDS011;31849;55.992;37.252;2024-03-08T07:50:57;9.73;;;6.18;;
46110;SDS011;31849;55.992;37.252;2024-03-08T07:56:01;11.23;;;6.43;;
46110;SDS011;31849;55.992;37.252;2024-03-08T08:01:15;10.82;;;6.10;;
46110;SDS011;31849;55.992;37.252;2024-03-08T08:06:20;10.73;;;6.18;;
46110;SDS011;31849;55.992;37.252;2024-03-08T08:11:25;10.90;;;6.35;;
46110;SDS011;31849;55.992;37.252;2024-03-08T08:16:31;11.00;;;6.28;;
46110;SDS011;31849;55.992;37.252;2024-03-08T08:21:35;10.48;;;6.88;;
46110;SDS011;31849;55.992;37.252;2024-03-08T08:26:39;12.20;;;7.43;;
46110;SDS011;31849;55.992;37.252;2024-03-08T08:31:44;9.65;;;6.43;;
46110;SDS011;31849;55.992;37.252;2024-03-08T08:36:49;12.40;;;7.00;;
46110;SDS011;31849;55.992;37.252;2024-03-08T08:41:53;15.20;;;7.28;;
46110;SDS011;31849;55.992;37.252;2024-03-08T08:46:58;11.27;;;7.05;;
46110;SDS011;31849;55.992;37.252;2024-03-08T08:52:13;12.45;;;7.90;;
46110;SDS011;31849;55.992;37.252;2024-03-08T08:57:18;11.80;;;6.90;;
46110;SDS011;31849;55.992;37.252;2024-03-08T09:02:24;11.13;;;6.60;;
46110;SDS011;31849;55.992;37.252;2024-03-08T10:39:37;12.10;;;6.93;;
46110;SDS011;31849;55.992;37.252;2024-03-08T10:44:49;10.38;;;6.47;;
46110;SDS011;31849;55.992;37.252;2024-03-08T10:50:06;12.40;;;7.00;;
46110;SDS011;31849;55.992;37.252;2024-03-08T10:55:20;13.88;;;7.70;;
46110;SDS011;31849;55.992;37.252;2024-03-08T11:00:28;11.50;;;6.88;;
46110;SDS011;31849;55.992;37.252;2024-03-08T11:05:37;10.73;;;6.78;;
46110;SDS011;31849;55.992;37.252;2024-03-08T11:10:50;10.27;;;6.07;;
46110;SDS011;31849;55.992;37.252;2024-03-08T11:15:56;9.18;;;6.13;;
46110;SDS011;31849;55.992;37.252;2024-03-08T11:21:02;11.13;;;6.35;;
46110;SDS011;31849;55.992;37.252;2024-03-08T11:26:18;8.68;;;5.63;;
46110;SDS011;31849;55.992;37.252;2024-03-08T11:31:25;9.43;;;5.85;;
46110;SDS011;31849;55.992;37.252;2024-03-08T11:36:31;9.13;;;5.10;;
46110;SDS011;31849;55.992;37.252;2024-03-08T11:41:40;9.00;;;5.65;;
46110;SDS011;31849;55.992;37.252;2024-03-08T11:46:47;8.88;;;5.55;;
46110;SDS011;31849;55.992;37.252;2024-03-08T11:51:52;8.97;;;5.37;;
46110;SDS011;31849;55.992;37.252;2024-03-08T11:56:58;9.68;;;5.10;;
46110;SDS011;31849;55.992;37.252;2024-03-08T12:02:03;7.90;;;5.25;;
46110;SDS011;31849;55.992;37.252;2024-03-08T12:07:09;8.77;;;5.63;;
46110;SDS011;31849;55.992;37.252;2024-03-08T12:12:15;9.07;;;5.30;;
46110;SDS011;31849;55.992;37.252;2024-03-08T12:17:19;7.63;;;5.15;;
46110;SDS011;31849;55.992;37.252;2024-03-08T12:22:24;9.50;;;5.63;;
46110;SDS011;31849;55.992;37.252;2024-03-08T12:27:30;10.52;;;5.72;;
46110;SDS011;31849;55.992;37.252;2024-03-08T12:32:34;8.55;;;4.85;;
46110;SDS011;31849;55.992;37.252;2024-03-08T12:37:38;7.70;;;4.47;;
46110;SDS011;31849;55.992;37.252;2024-03-08T12:42:44;8.45;;;4.93;;
46110;SDS011;31849;55.992;37.252;2024-03-08T12:47:49;7.40;;;4.72;;
46110;SDS011;31849;55.992;37.252;2024-03-08T12:52:55;9.70;;;5.20;;
46110;SDS011;31849;55.992;37.252;2024-03-08T12:58:01;9.93;;;5.57;;
46110;SDS011;31849;55.992;37.252;2024-03-08T13:03:06;10.15;;;5.10;;
46110;SDS011;31849;55.992;37.252;2024-03-08T13:08:12;10.18;;;6.03;;
46110;SDS011;31849;55.992;37.252;2024-03-08T13:13:17;8.37;;;4.83;;
46110;SDS011;31849;55.992;37.252;2024-03-08T13:18:21;9.13;;;5.25;;
46110;SDS011;31849;55.992;37.252;2024-03-08T13:23:25;8.87;;;5.57;;
46110;SDS011;31849;55.992;37.252;2024-03-08T13:28:31;9.85;;;5.60;;
46110;SDS011;31849;55.992;37.252;2024-03-08T13:33:38;9.68;;;5.53;;
46110;SDS011;31849;55.992;37.252;2024-03-08T13:38:44;7.80;;;4.45;;
46110;SDS011;31849;55.992;37.252;2024-03-08T13:43:51;7.35;;;4.15;;
46110;SDS011;31849;55.992;37.252;2024-03-08T13:54:18;7.82;;;4.50;;
46110;SDS011;31849;55.992;37.252;2024-03-08T13:59:23;7.57;;;4.07;;
46110;SDS011;31849;55.992;37.252;2024-03-08T14:04:31;7.30;;;3.97;;
46110;SDS011;31849;55.992;37.252;2024-03-08T14:09:35;8.10;;;5.00;;
46110;SDS011;31849;55.992;37.252;2024-03-08T14:14:46;8.35;;;4.30;;
46110;SDS011;31849;55.992;37.252;2024-03-08T14:19:50;8.10;;;4.60;;
46110;SDS011;31849;55.992;37.252;2024-03-08T14:24:55;9.53;;;5.00;;
46110;SDS011;31849;55.992;37.252;2024-03-08T14:30:00;10.77;;;5.20;;
46110;SDS011;31849;55.992;37.252;2024-03-08T14:35:05;8.23;;;4.78;;
46110;SDS011;31849;55.992;37.252;2024-03-08T14:40:10;8.13;;;4.85;;
46110;SDS011;31849;55.992;37.252;2024-03-08T14:45:19;8.27;;;5.07;;
46110;SDS011;31849;55.992;37.252;2024-03-08T14:50:24;7.97;;;4.75;;
46110;SDS011;31849;55.992;37.252;2024-03-08T14:55:28;8.82;;;4.55;;
46110;SDS011;31849;55.992;37.252;2024-03-08T15:00:34;8.55;;;4.70;;
46110;SDS011;31849;55.992;37.252;2024-03-08T15:05:40;8.45;;;4.95;;
46110;SDS011;31849;55.992;37.252;2024-03-08T15:10:49;8.73;;;4.80;;
46110;SDS011;31849;55.992;37.252;2024-03-08T15:15:58;8.60;;;4.53;;
46110;SDS011;31849;55.992;37.252;2024-03-08T15:21:03;10.13;;;5.10;;
46110;SDS011;31849;55.992;37.252;2024-03-08T15:26:09;8.48;;;4.90;;
46110;SDS011;31849;55.992;37.252;2024-03-08T15:31:14;10.13;;;5.13;;
46110;SDS011;31849;55.992;37.252;2024-03-08T15:36:19;8.77;;;4.28;;
46110;SDS011;31849;55.992;37.252;2024-03-08T15:41:23;9.23;;;4.95;;
46110;SDS011;31849;55.992;37.252;2024-03-08T15:46:30;9.43;;;4.80;;
46110;SDS011;31849;55.992;37.252;2024-03-08T15:51:35;8.13;;;4.93;;
46110;SDS011;31849;55.992;37.252;2024-03-08T15:56:40;9.15;;;4.68;;
46110;SDS011;31849;55.992;37.252;2024-03-08T16:01:46;8.80;;;4.30;;
46110;SDS011;31849;55.992;37.252;2024-03-08T16:06:53;10.30;;;4.88;;
46110;SDS011;31849;55.992;37.252;2024-03-08T16:11:58;8.90;;;4.78;;
46110;SDS011;31849;55.992;37.252;2024-03-08T16:17:04;8.40;;;4.55;;
46110;SDS011;31849;55.992;37.252;2024-03-08T16:22:09;10.52;;;4.93;;
46110;SDS011;31849;55.992;37.252;2024-03-08T16:27:12;11.63;;;5.00;;
46110;SDS011;31849;55.992;37.252;2024-03-08T16:32:20;10.15;;;4.55;;
46110;SDS011;31849;55.992;37.252;2024-03-08T16:37:24;10.45;;;4.88;;
46110;SDS011;31849;55.992;37.252;2024-03-08T16:42:31;11.95;;;5.70;;
46110;SDS011;31849;55.992;37.252;2024-03-08T16:47:37;9.07;;;5.23;;
46110;SDS011;31849;55.992;37.252;2024-03-08T16:52:42;9.35;;;5.10;;
46110;SDS011;31849;55.992;37.252;2024-03-08T16:57:46;10.27;;;5.78;;
46110;SDS011;31849;55.992;37.252;2024-03-08T17:07:57;13.88;;;5.68;;
46110;SDS011;31849;55.992;37.252;2024-03-08T17:13:02;11.10;;;5.45;;
46110;SDS011;31849;55.992;37.252;2024-03-08T17:18:09;10.82;;;5.72;;
46110;SDS011;31849;55.992;37.252;2024-03-08T17:23:14;10.88;;;5.78;;
46110;SDS011;31849;55.992;37.252;2024-03-08T17:28:18;12.38;;;6.15;;
46110;SDS011;31849;55.992;37.252;2024-03-08T17:33:24;14.03;;;6.20;;
46110;SDS011;31849;55.992;37.252;2024-03-08T17:38:28;10.10;;;5.43;;
46110;SDS011;31849;55.992;37.252;2024-03-08T17:43:34;10.15;;;5.55;;
46110;SDS011;31849;55.992;37.252;2024-03-08T17:48:39;11.23;;;5.53;;
46110;SDS011;31849;55.992;37.252;2024-03-08T17:53:44;10.10;;;5.10;;
46110;SDS011;31849;55.992;37.252;2024-03-08T17:58:50;9.20;;;4.68;;
46110;SDS011;31849;55.992;37.252;2024-03-08T18:03:56;8.48;;;4.43;;
46110;SDS011;31849;55.992;37.252;2024-03-08T18:09:03;6.95;;;3.80;;
46110;SDS011;31849;55.992;37.252;2024-03-08T18:14:11;5.80;;;3.17;;
46110;SDS011;31849;55.992;37.252;2024-03-08T18:19:18;7.00;;;3.20;;
46110;SDS011;31849;55.992;37.252;2024-03-08T18:24:22;5.00;;;2.80;;
46110;SDS011;31849;55.992;37.252;2024-03-08T18:29:27;5.93;;;3.00;;
46110;SDS011;31849;55.992;37.252;2024-03-08T18:34:32;5.77;;;2.50;;
46110;SDS011;31849;55.992;37.252;2024-03-08T18:39:38;5.13;;;2.55;;
46110;SDS011;31849;55.992;37.252;2024-03-08T18:44:42;4.55;;;2.33;;
46110;SDS011;31849;55.992;37.252;2024-03-08T18:49:50;6.60;;;2.15;;
46110;SDS011;31849;55.992;37.252;2024-03-08T18:54:54;4.57;;;2.30;;
46110;SDS011;31849;55.992;37.252;2024-03-08T18:59:58;4.53;;;2.25;;
46110;SDS011;31849;55.992;37.252;2024-03-08T19:05:05;4.70;;;2.30;;
46110;SDS011;31849;55.992;37.252;2024-03-08T19:10:18;4.22;;;1.88;;
46110;SDS011;31849;55.992;37.252;2024-03-08T19:15:24;5.55;;;1.73;;
46110;SDS011;31849;55.992;37.252;2024-03-08T19:20:30;4.85;;;1.98;;
46110;SDS011;31849;55.992;37.252;2024-03-08T19:25:36;3.88;;;1.70;;
46110;SDS011;31849;55.992;37.252;2024-03-08T19:30:44;3.90;;;1.55;;
46110;SDS011;31849;55.992;37.252;2024-03-08T19:35:52;4.15;;;1.50;;
46110;SDS011;31849;55.992;37.252;2024-03-08T19:40:56;4.43;;;1.65;;
46110;SDS011;31849;55.992;37.252;2024-03-08T19:46:00;2.25;;;1.23;;
46110;SDS011;31849;55.992;37.252;2024-03-08T19:51:10;2.72;;;1.42;;
46110;SDS011;31849;55.992;37.252;2024-03-08T19:56:16;2.03;;;1.20;;
46110;SDS011;31849;55.992;37.252;2024-03-08T20:01:20;2.55;;;1.20;;
46110;SDS011;31849;55.992;37.252;2024-03-08T20:06:25;3.07;;;1.30;;
46110;SDS011;31849;55.992;37.252;2024-03-08T20:11:29;3.33;;;1.48;;
46110;SDS011;31849;55.992;37.252;2024-03-08T20:16:33;4.10;;;1.60;;
46110;SDS011;31849;55.992;37.252;2024-03-08T20:21:39;3.65;;;1.50;;
46110;SDS011;31849;55.992;37.252;2024-03-08T20:26:45;3.15;;;1.40;;
46110;SDS011;31849;55.992;37.252;2024-03-08T20:31:49;4.50;;;1.50;;
46110;SDS011;31849;55.992;37.252;2024-03-08T20:36:54;2.90;;;1.20;;
46110;SDS011;31849;55.992;37.252;2024-03-08T20:41:58;2.88;;;1.20;;
46110;SDS011;31849;55.992;37.252;2024-03-08T20:47:02;2.60;;;1.00;;
46110;SDS011;31849;55.992;37.252;2024-03-08T20:52:10;1.65;;;0.80;;
46110;SDS011;31849;55.992;37.252;2024-03-08T20:57:14;2.10;;;0.75;;
46110;SDS011;31849;55.992;37.252;2024-03-08T21:02:18;2.03;;;0.80;;
46110;SDS011;31849;55.992;37.252;2024-03-08T21:07:23;2.10;;;0.87;;
46110;SDS011;31849;55.992;37.252;2024-03-08T21:12:27;1.80;;;0.80;;
46110;SDS011;31849;55.992;37.252;2024-03-08T21:17:31;3.50;;;0.65;;
46110;SDS011;31849;55.992;37.252;2024-03-08T21:22:36;2.83;;;0.90;;
46110;SDS011;31849;55.992;37.252;2024-03-08T21:27:40;2.40;;;0.80;;
46110;SDS011;31849;55.992;37.252;2024-03-08T21:32:45;3.08;;;0.80;;
46110;SDS011;31849;55.992;37.252;2024-03-08T21:37:50;2.33;;;0.90;;
46110;SDS011;31849;55.992;37.252;2024-03-08T21:42:56;1.80;;;0.80;;
46110;SDS011;31849;55.992;37.252;2024-03-08T21:48:03;3.25;;;0.80;;
46110;SDS011;31849;55.992;37.252;2024-03-08T21:53:09;2.38;;;0.70;;
46110;SDS011;31849;55.992;37.252;2024-03-08T21:58:27;1.75;;;0.75;;
46110;SDS011;31849;55.992;37.252;2024-03-08T22:03:31;1.40;;;0.70;;
46110;SDS011;31849;55.992;37.252;2024-03-08T22:08:39;2.42;;;0.98;;
46110;SDS011;31849;55.992;37.252;2024-03-08T22:13:44;2.35;;;0.88;;
46110;SDS011;31849;55.992;37.252;2024-03-08T22:18:50;1.40;;;0.60;;
46110;SDS011;31849;55.992;37.252;2024-03-08T22:23:56;3.55;;;0.82;;
46110;SDS011;31849;55.992;37.252;2024-03-08T22:29:00;2.38;;;0.90;;
46110;SDS011;31849;55.992;37.252;2024-03-08T22:34:05;2.45;;;0.70;;
46110;SDS011;31849;55.992;37.252;2024-03-08T22:39:11;2.63;;;0.80;;
46110;SDS011;31849;55.992;37.252;2024-03-08T22:44:14;1.20;;;0.50;;
46110;SDS011;31849;55.992;37.252;2024-03-08T22:49:18;2.07;;;0.77;;
46110;SDS011;31849;55.992;37.252;2024-03-08T22:54:24;1.55;;;0.70;;
46110;SDS011;31849;55.992;37.252;2024-03-08T22:59:28;2.38;;;1.20;;
46110;SDS011;31849;55.992;37.252;2024-03-08T23:04:32;1.83;;;0.90;;
46110;SDS011;31849;55.992;37.252;2024-03-08T23:09:37;1.77;;;0.77;;
46110;SDS011;31849;55.992;37.252;2024-03-08T23:14:44;1.48;;;0.63;;
46110;SDS011;31849;55.992;37.252;2024-03-08T23:19:49;1.97;;;0.80;;
46110;SDS011;31849;55.992;37.252;2024-03-08T23:24:59;3.65;;;0.82;;
46110;SDS011;31849;55.992;37.252;2024-03-08T23:30:06;1.75;;;0.70;;
46110;SDS011;31849;55.992;37.252;2024-03-08T23:35:12;1.95;;;0.70;;
46110;SDS011;31849;55.992;37.252;2024-03-08T23:40:19;1.98;;;0.90;;
46110;SDS011;31849;55.992;37.252;2024-03-08T23:45:25;1.60;;;0.80;;
46110;SDS011;31849;55.992;37.252;2024-03-08T23:50:30;3.33;;;0.80;;
46110;SDS011;31849;55.992;37.252;2024-03-08T23:55:36;2.25;;;0.73;;
